createdAt,value
2023-03-23T15:59:41.480Z,4.73
2023-03-23T16:02:18.259Z,4.40
2023-03-23T16:04:48.090Z,4.60
2023-03-23T16:07:15.605Z,4.40
2023-03-23T16:09:44.462Z,4.60
2023-03-23T16:15:15.620Z,4.60
2023-03-23T16:17:43.671Z,4.17
2023-03-23T16:20:14.482Z,4.83
2023-03-23T16:22:42.112Z,4.40
2023-03-23T16:27:57.710Z,4.10
2023-03-23T16:30:27.217Z,4.10
2023-03-23T16:32:57.611Z,4.10
2023-03-23T16:35:27.004Z,4.37
2023-03-23T16:38:06.988Z,4.10
2023-03-23T16:40:59.766Z,4.00
2023-03-23T16:43:27.290Z,3.80
2023-03-23T16:45:57.685Z,4.70
2023-03-23T16:48:26.564Z,4.67
2023-03-23T16:53:54.068Z,4.10
2023-03-23T16:56:21.544Z,4.17
2023-03-23T16:58:48.966Z,4.63
2023-03-23T17:01:16.438Z,4.40
2023-03-23T17:03:44.091Z,4.40
2023-03-23T17:06:11.700Z,4.20
2023-03-23T17:08:39.167Z,4.50
2023-03-23T17:11:08.204Z,4.43
2023-03-23T17:13:35.736Z,4.37
2023-03-23T17:16:03.225Z,4.40
2023-03-23T17:18:31.435Z,4.17
2023-03-23T17:20:58.856Z,4.07
2023-03-23T17:23:26.541Z,3.90
2023-03-23T17:28:54.614Z,3.93
2023-03-23T17:31:22.076Z,4.10
2023-03-23T17:33:49.865Z,4.03
2023-03-23T17:36:17.493Z,4.40
2023-03-23T17:38:45.087Z,3.97
2023-03-23T17:44:12.019Z,4.20
2023-03-23T17:46:40.779Z,4.87
2023-03-23T17:49:08.216Z,4.23
2023-03-23T17:51:36.052Z,3.80
2023-03-23T17:54:03.682Z,4.23
2023-03-23T17:56:31.307Z,4.03
2023-03-23T17:58:58.725Z,3.80
2023-03-23T18:04:26.772Z,3.90
2023-03-23T18:06:55.464Z,4.10
2023-03-23T18:09:23.188Z,3.90
2023-03-23T18:11:50.640Z,4.10
2023-03-23T18:14:18.175Z,3.87
2023-03-23T18:16:45.620Z,3.87
2023-03-23T18:19:13.245Z,3.73
2023-03-23T18:21:43.820Z,3.80
2023-03-23T18:27:15.923Z,3.47
2023-03-23T18:29:43.394Z,3.70
2023-03-23T18:32:10.890Z,3.83
2023-03-23T18:34:41.509Z,3.53
2023-03-23T18:40:11.798Z,3.50
2023-03-23T18:42:39.426Z,3.37
2023-03-23T18:48:09.770Z,3.47
2023-03-23T18:50:37.223Z,3.70
2023-03-23T18:53:04.647Z,3.67
2023-03-23T18:55:33.398Z,4.33
2023-03-23T18:58:01.189Z,3.80
2023-03-23T19:00:29.470Z,4.00
2023-03-23T19:02:57.008Z,3.83
2023-03-23T19:05:24.563Z,4.20
2023-03-23T19:10:59.960Z,3.97
2023-03-23T19:13:27.982Z,4.13
2023-03-23T19:15:56.245Z,3.63
2023-03-23T19:18:23.746Z,3.80
2023-03-23T19:21:09.274Z,3.23
2023-03-23T19:23:40.682Z,3.40
2023-03-23T19:26:22.379Z,4.07
2023-03-23T19:34:21.665Z,3.57
2023-03-23T19:36:55.237Z,3.50
2023-03-23T19:39:30.817Z,3.83
2023-03-23T19:42:00.169Z,3.67
2023-03-23T19:47:29.817Z,3.47
2023-03-23T19:49:59.503Z,3.07
2023-03-23T19:52:27.946Z,3.50
2023-03-23T19:54:55.452Z,3.17
2023-03-23T19:57:24.427Z,3.60
2023-03-23T19:59:51.827Z,3.27
2023-03-23T20:05:18.015Z,3.27
2023-03-23T20:07:50.288Z,2.80
2023-03-23T20:10:19.413Z,3.20
2023-03-23T20:12:48.173Z,3.40
2023-03-23T20:18:18.601Z,3.10
2023-03-23T20:20:50.019Z,3.43
2023-03-23T20:23:19.083Z,3.00
2023-03-23T20:25:46.654Z,3.53
2023-03-23T20:28:16.675Z,2.97
2023-03-23T20:30:44.388Z,3.60
2023-03-23T20:33:11.882Z,3.07
2023-03-23T20:35:39.945Z,3.57
2023-03-23T20:38:07.555Z,3.40
2023-03-23T20:43:39.496Z,3.40
2023-03-23T20:46:08.177Z,3.60
2023-03-23T20:48:37.271Z,3.43
2023-03-23T20:51:07.862Z,3.53
2023-03-23T20:53:36.185Z,3.53
2023-03-23T20:56:06.915Z,3.87
2023-03-23T20:58:35.693Z,3.53
2023-03-23T21:01:06.490Z,3.70
2023-03-23T21:06:37.120Z,3.20
2023-03-23T21:09:06.035Z,3.23
2023-03-23T21:11:35.109Z,3.17
2023-03-23T21:14:02.869Z,3.40
2023-03-23T21:16:31.790Z,3.10
2023-03-23T21:18:59.384Z,3.10
2023-03-23T21:21:28.143Z,3.17
2023-03-23T21:26:44.399Z,3.37
2023-03-23T21:29:11.843Z,3.20
2023-03-23T21:31:40.653Z,4.00
2023-03-23T21:34:08.566Z,4.00
2023-03-23T21:36:36.281Z,4.10
2023-03-23T21:39:05.999Z,3.27
2023-03-23T21:41:41.965Z,3.93
2023-03-23T21:47:14.049Z,3.70
2023-03-23T21:49:41.879Z,3.40
2023-03-23T21:52:09.383Z,3.67
2023-03-23T21:54:36.895Z,3.13
2023-03-23T21:57:04.719Z,3.30
2023-03-23T21:59:32.234Z,3.23
2023-03-23T22:02:02.118Z,3.37
2023-03-23T22:07:39.786Z,3.30
2023-03-23T22:10:09.092Z,3.07
2023-03-23T22:12:37.450Z,3.23
2023-03-23T22:15:05.574Z,3.17
2023-03-23T22:17:33.077Z,3.43
2023-03-23T22:20:00.603Z,3.33
2023-03-23T22:25:28.185Z,3.40
2023-03-23T22:27:56.182Z,3.23
2023-03-23T22:30:24.406Z,3.77
2023-03-23T22:32:51.994Z,3.47
2023-03-23T22:38:17.913Z,3.37
2023-03-23T22:40:46.946Z,3.30
2023-03-23T22:43:14.563Z,3.90
2023-03-23T22:45:42.065Z,3.40
2023-03-23T22:48:09.583Z,3.63
2023-03-23T22:50:37.054Z,3.67
2023-03-23T22:53:04.531Z,3.57
2023-03-23T22:55:32.046Z,3.23
2023-03-23T22:58:01.093Z,3.50
2023-03-23T23:00:28.755Z,3.10
2023-03-23T23:02:56.252Z,4.00
2023-03-23T23:05:23.719Z,3.30
2023-03-23T23:07:51.297Z,3.50
2023-03-23T23:10:18.854Z,3.83
2023-03-23T23:12:47.541Z,3.47
2023-03-23T23:15:16.342Z,3.53
2023-03-23T23:17:43.950Z,4.00
2023-03-23T23:20:14.035Z,4.00
2023-03-23T23:22:43.176Z,4.23
2023-03-23T23:25:12.541Z,4.30
2023-03-23T23:27:40.045Z,4.17
2023-03-23T23:30:09.825Z,4.30
2023-03-23T23:32:38.846Z,4.37
2023-03-23T23:35:07.520Z,4.83
2023-03-23T23:40:24.105Z,4.30
2023-03-23T23:42:52.535Z,3.60
2023-03-23T23:45:20.612Z,3.60
2023-03-23T23:47:49.530Z,3.30
2023-03-23T23:50:17.240Z,3.50
2023-03-23T23:52:45.258Z,3.13
2023-03-23T23:58:01.774Z,2.70
